West Miami, Florida
Current Conditions -  °F | °C
As of 3:53 PM on Saturday 25 Oct 2014 (Local Time) from KMIA Reporting Station
Broken Clouds Broken Clouds  
Wind Chill: 83°   Ceiling: 5000
Heat Index: 84°   Visibility: 10mi
Dew Point: 62°   Wind: 9mph
Humidity: 49%   Direction: 50°NE
Pressure: 29.88"   Gusts: NA
Location:  25.7365°N, 80.3112°W
Report Text: KMIA 251953Z 05008KT 10SM BKN050 BKN300 28/17 A2988 RMK AO2 SLP117 T02830167
Loading
Personal Weather Stations






























Interactive Weather Map New forecast layout! Learn more

10-Day Weather Forecast

Advertisements
Track Severe Weather on mobile